Campinorte, Brazil
Current Conditions -  °F | °C
As of 1:00 PM on Saturday 25 Oct 2014 (Local Time) from SBAN Reporting Station
Light Rain Light Rain  
Wind Chill: 66°   Ceiling: 2000
Heat Index: 66°   Visibility: 4mi
Dew Point: 63°   Wind: 3mph
Humidity: 88%   Direction: 280°W
Pressure: 30.12"   Gusts: NA
Location:  14.33°S, 49.13°W
Report Text: SBAN 251500Z 28003KT 6000 -RA SCT004 BKN020 BKN070 19/17 Q1020
Loading
Personal Weather Stations






























Interactive Weather Map
Tropical Storm Tracking
New forecast layout! Learn more

10-Day Weather Forecast

Advertisements
Track Severe Weather on mobile